M I D A S
Marine Information and Data Acquisition System
Tripno 229 of the Zeeleeuw from 2002-03-25 07:38:32 to 2002-03-25 15:12:41
Back to CruiseResearch ActivitiesStationsMapUnderway DataData graphs

EquipmentUnitsComment
TimeDGPSUTC
LatitudeDGPSDM.mWGS84
LongitudeDGPSDM.mWGS84
HeadingGyrodeg 
SOGDGPSknotsSpeed over ground
COGDGPSdegCourse over ground
DepthEcho soundermeters200 kHz
Missing or incorrect values are displayed as -999
Navigation data collected by the RV Zeeleeuw from 2002-03-25 07:38:32 to 2002-03-25 15:12:41
Time Latitude Longitude Heading SOG COG Depth
2002-03-25 07:39:35 51°13.781 2°55.677 333.7 8.1 331 11.7
2002-03-25 07:40:36 51°13.921 2°55.563 337 9.7 334.4 11.5
2002-03-25 07:41:36 51°14.07 2°55.457 338.7 9.9 336.4 11.5
2002-03-25 07:42:35 51°14.209 2°55.333 327.2 9.7 325.2 11.7
2002-03-25 07:43:35 51°14.321 2°55.149 312 9.8 309.1 11.5
2002-03-25 07:44:35 51°14.461 2°54.974 325.8 11.8 327.7 11.4
2002-03-25 07:45:35 51°14.627 2°54.804 325.3 12 328 11
2002-03-25 07:46:36 51°14.79 2°54.603 322 12.4 324 11
2002-03-25 07:47:35 51°14.956 2°54.397 321 13.2 321.7 10.3
2002-03-25 07:48:35 51°15.145 2°54.201 332 13.7 331.6 10.5
2002-03-25 07:49:35 51°15.348 2°54.029 329.2 13.8 330.2 11.2
2002-03-25 07:50:35 51°15.545 2°53.846 327.8 13.7 329.5 12
2002-03-25 07:51:35 51°15.745 2°53.669 334.2 13.8 333.8 12.8
2002-03-25 07:52:36 51°15.952 2°53.497 331.7 13.7 332.1 13.3
2002-03-25 07:53:35 51°16.15 2°53.328 330.7 13.8 331.8 13.8
2002-03-25 07:54:36 51°16.361 2°53.168 336.5 13.9 336.2 14
2002-03-25 07:55:35 51°16.565 2°53.021 335.3 13.6 334.7 13.5
2002-03-25 07:56:36 51°16.773 2°52.868 333.8 13.5 335.4 11.9
2002-03-25 07:57:36 51°16.976 2°52.72 334.3 13.5 335.7 11.4
2002-03-25 07:58:35 51°17.179 2°52.573 335.7 13.6 335.4 11.5
2002-03-25 07:59:36 51°17.388 2°52.418 333.5 13.6 334 12
2002-03-25 08:00:35 51°17.532 2°52.174 302.3 13.1 303.1 12.3
2002-03-25 08:01:35 51°17.649 2°51.875 301.7 13.3 301.4 12.1
2002-03-25 08:02:35 51°17.766 2°51.575 301.8 13.3 302 11.7
2002-03-25 08:03:36 51°17.885 2°51.27 301.7 13.3 302.1 12.5
2002-03-25 08:04:36 51°18.002 2°50.968 301.7 13.4 302.1 14
2002-03-25 08:05:36 51°18.121 2°50.667 301.5 13.4 301.7 14.9
2002-03-25 08:06:35 51°18.235 2°50.367 301.2 13.5 301.5 15.5
2002-03-25 08:07:36 51°18.356 2°50.058 300.8 13.5 302.1 15.9
2002-03-25 08:08:35 51°18.473 2°49.76 302.2 13.5 302.9 14.6
2002-03-25 08:09:35 51°18.592 2°49.457 302.7 13.4 302.5 13
2002-03-25 08:10:35 51°18.709 2°49.157 303.3 13.3 302.2 12.9
2002-03-25 08:11:35 51°18.833 2°48.865 303.2 13.2 302.4 14
2002-03-25 08:12:35 51°18.955 2°48.571 302.7 13.3 303.1 16
2002-03-25 08:13:34 51°19.069 2°48.274 298.8 13.4 299.9 18.8
2002-03-25 08:14:36 51°19.183 2°47.956 303.2 13.4 303.1 20.4
2002-03-25 08:15:36 51°19.328 2°47.679 310.5 13.6 309.9 22.8
2002-03-25 08:16:35 51°19.466 2°47.398 305.8 13.7 307.2 23.4
2002-03-25 08:17:35 51°19.607 2°47.113 307.2 13.7 308.6 23.6
2002-03-25 08:18:36 51°19.752 2°46.826 307.8 13.7 308.1 22.1
2002-03-25 08:19:35 51°19.89 2°46.547 306.7 13.6 307.5 18.6
2002-03-25 08:20:35 51°20.025 2°46.27 306.2 13.1 308.1 14.6
2002-03-25 08:21:34 51°20.101 2°45.961 284.2 12.8 284.5 16.2
2002-03-25 08:22:34 51°20.143 2°45.627 282.8 12.8 282.9 21.1
2002-03-25 08:23:35 51°20.199 2°45.287 283.5 13.1 283.8 24.8
2002-03-25 08:24:35 51°20.251 2°44.95 283.5 13.1 283.6 26
2002-03-25 08:25:35 51°20.305 2°44.612 283.5 13.2 284 27.3
2002-03-25 08:26:35 51°20.361 2°44.272 283.8 13.2 284.2 28.6
2002-03-25 08:27:35 51°20.415 2°43.932 283.2 13.2 284.3 29.1
2002-03-25 08:28:35 51°20.472 2°43.594 283.8 13.1 284.9 28.6
2002-03-25 08:29:35 51°20.52 2°43.255 281.7 13.1 281.5 27.4
2002-03-25 08:30:35 51°20.564 2°42.914 282 13 281.4 24.4
2002-03-25 08:31:35 51°20.6 2°42.575 279.2 12.9 279 23
2002-03-25 08:32:35 51°20.634 2°42.239 279.3 12.8 279 21
2002-03-25 08:33:35 51°20.669 2°41.905 279.7 12.8 279 19.4
2002-03-25 08:34:34 51°20.704 2°41.575 279.7 12.9 280.3 23.3
2002-03-25 08:35:34 51°20.741 2°41.238 279 13 280.3 28.7
2002-03-25 08:36:34 51°20.775 2°40.898 276.2 12.9 275.9 28.1
2002-03-25 08:37:35 51°20.797 2°40.55 276.2 13 275.7 28.7
2002-03-25 08:38:34 51°20.821 2°40.212 276.3 13 276.2 28.6
2002-03-25 08:39:35 51°20.845 2°39.862 277 13.1 276.6 28
2002-03-25 08:40:34 51°20.868 2°39.523 277 13 276.1 27
2002-03-25 08:41:35 51°20.892 2°39.174 276.8 12.9 276.6 27.6
2002-03-25 08:42:34 51°20.915 2°38.84 276.7 12.9 276.3 27.1
2002-03-25 08:43:35 51°20.939 2°38.494 276.7 12.9 276 25.9
2002-03-25 08:44:35 51°20.962 2°38.157 276.7 12.8 276 26.3
2002-03-25 08:45:35 51°20.986 2°37.821 277.2 12.7 277.1 26.8
2002-03-25 08:46:35 51°21.132 2°37.602 349 13.3 346.9 27.3
2002-03-25 08:47:35 51°21.363 2°37.595 359 14.1 359.6 27.3
2002-03-25 08:48:35 51°21.598 2°37.576 352.3 14 353.2 28
2002-03-25 08:49:35 51°21.829 2°37.529 351.2 14 351.9 32.6
2002-03-25 08:50:35 51°22.061 2°37.481 351.3 14.1 352.9 32.2
2002-03-25 08:51:35 51°22.293 2°37.42 349.8 14.1 350.3 32.4
2002-03-25 08:52:35 51°22.516 2°37.325 334.5 13.7 336.4 31.4
2002-03-25 08:53:34 51°22.689 2°37.115 312.7 13.3 315.2 30.9
2002-03-25 08:54:34 51°22.812 2°36.83 295.7 13 297 31.4
2002-03-25 08:55:34 51°22.909 2°36.52 294.2 13 294.7 29
2002-03-25 08:56:35 51°22.978 2°36.19 282.8 12.9 282.9 26.5
2002-03-25 08:57:35 51°23.009 2°35.852 275.3 12.8 275.8 23
2002-03-25 08:58:34 51°23.027 2°35.518 274.3 12.8 274 26.9
2002-03-25 08:59:34 51°23.046 2°35.179 275.3 12.9 275.5 30.5
2002-03-25 09:00:35 51°23.067 2°34.835 274.7 12.8 275.1 35.1
2002-03-25 09:01:35 51°23.088 2°34.496 274.7 12.8 275.3 35
2002-03-25 09:02:35 51°23.108 2°34.158 272.2 12.7 273.3 34.3
2002-03-25 09:03:35 51°23.109 2°33.821 269.2 12.7 270.2 34
2002-03-25 09:04:35 51°23.104 2°33.486 267.2 12.6 268.1 33.9
2002-03-25 09:05:35 51°23.094 2°33.153 267.5 12.6 268.1 33.3
2002-03-25 09:06:35 51°23.085 2°32.821 267 12.5 267.7 32.7
2002-03-25 09:07:34 51°23.076 2°32.496 266.3 12.4 267.7 32.7
2002-03-25 09:08:34 51°23.067 2°32.166 266.5 12.3 267.4 32.5
2002-03-25 09:09:35 51°23.058 2°31.832 266.5 12.4 267.8 32
2002-03-25 09:10:35 51°23.05 2°31.503 266.8 12.4 268.1 29
2002-03-25 09:11:36 51°23.04 2°31.169 266.7 12.4 267.4 30.7
2002-03-25 09:12:34 51°23.03 2°30.849 266.7 12.4 267.3 30.2
2002-03-25 09:13:35 51°23.02 2°30.511 266.7 12.5 267.1 33.8
2002-03-25 09:14:34 51°23.008 2°30.186 266 12.5 266.5 35.6
2002-03-25 09:15:35 51°22.991 2°29.85 264.8 12.6 265.3 34.9
2002-03-25 09:16:34 51°22.973 2°29.525 264 12.5 264.8 35.1
2002-03-25 09:17:34 51°22.945 2°29.198 258.5 12.4 259.7 35.9
2002-03-25 09:18:35 51°22.908 2°28.869 259.8 12.4 260.2 35.6
2002-03-25 09:19:34 51°22.874 2°28.549 259.7 12.4 260.5 36.1
2002-03-25 09:20:35 51°22.84 2°28.217 259.7 12.4 260.5 36.3
2002-03-25 09:21:35 51°22.813 2°27.89 262.3 12.4 262.7 35.8
2002-03-25 09:22:35 51°22.788 2°27.564 261.7 12.4 262.3 35.3
2002-03-25 09:23:34 51°22.761 2°27.242 262 12.4 262.2 35.5
2002-03-25 09:24:35 51°22.733 2°26.91 261.8 12.4 262.1 35
2002-03-25 09:25:34 51°22.71 2°26.587 264.5 12.5 265.3 35.2
2002-03-25 09:26:35 51°22.733 2°26.254 291.2 12.7 291.2 30.2
2002-03-25 09:27:34 51°22.889 2°26.03 334.8 13.4 335.7 21.8
2002-03-25 09:28:34 51°23.101 2°25.91 328.8 13.4 332.9 20.3
2002-03-25 09:29:35 51°23.303 2°25.734 338.3 13.9 338.9 32
2002-03-25 09:30:34 51°23.534 2°25.687 0.8 14.6 0.5 34.5
2002-03-25 09:31:35 51°23.78 2°25.743 4.5 14.6 6.5 34.7
2002-03-25 09:32:35 51°24.023 2°25.761 3.2 14.6 4.3 34.5
2002-03-25 09:33:34 51°24.261 2°25.794 2.5 14.6 4.8 35.8
2002-03-25 09:34:34 51°24.503 2°25.834 6.8 14.6 6.8 36.2
2002-03-25 09:35:35 51°24.749 2°25.874 3.7 14.7 5 36.9
2002-03-25 09:36:34 51°24.988 2°25.911 5.7 14.8 6.7 35.8
2002-03-25 09:37:35 51°25.236 2°25.958 5.8 14.7 6 35.7
2002-03-25 09:38:34 51°25.475 2°26.004 5.3 14.7 6.9 35.6
2002-03-25 09:39:35 51°25.72 2°26.053 7.8 14.6 7.1 36.4
2002-03-25 09:40:35 51°25.961 2°26.097 5.7 14.6 7.4 33.4
2002-03-25 09:41:34 51°26.197 2°26.154 9 14.5 8.3 33.6
2002-03-25 09:42:35 51°26.439 2°26.213 6 14.5 7.5 29
2002-03-25 09:43:34 51°26.674 2°26.272 9.3 14.6 9.7 26.2
2002-03-25 09:44:35 51°26.917 2°26.333 6.8 14.6 8.3 25.3
2002-03-25 09:45:35 51°27.157 2°26.393 6.5 14.6 8.6 27.8
2002-03-25 09:46:35 51°27.399 2°26.453 9.3 14.7 8.7 32.8
2002-03-25 09:47:35 51°27.64 2°26.51 7 14.2 10.2 32.7
2002-03-25 09:48:35 51°27.884 2°26.568 10 14.8 9.4 35.9
2002-03-25 09:49:35 51°28.126 2°26.625 7.8 14.7 8.8 37.2
2002-03-25 09:50:35 51°28.367 2°26.7 14.5 14.8 13.6 36.4
2002-03-25 09:51:35 51°28.595 2°26.781 7.2 11.6 9 36.6
2002-03-25 09:52:35 51°28.745 2°26.786 347.5 7.5 355.7 36.6
2002-03-25 09:53:35 51°28.818 2°26.783 327.7 1.6 28.5 36.3
2002-03-25 09:54:36 51°28.834 2°26.813 320 1.4 44.6 -999
2002-03-25 09:55:35 51°28.853 2°26.839 312.2 1.5 39.1 -999
2002-03-25 09:56:36 51°28.873 2°26.864 305.5 1.5 34.8 -999
2002-03-25 09:57:35 51°28.894 2°26.885 300.3 1.4 32.2 36.6
2002-03-25 09:58:34 51°28.915 2°26.904 294.2 1.5 29.7 36.8
2002-03-25 09:59:35 51°28.938 2°26.911 286.2 2.1 325.2 36.6
2002-03-25 10:00:35 51°29.022 2°26.72 310.5 12.5 313.7 34.3
2002-03-25 10:01:34 51°29.188 2°26.487 318.7 13.7 320.1 36.4
2002-03-25 10:02:35 51°29.397 2°26.312 335.2 14.1 336.1 32.9
2002-03-25 10:03:35 51°29.61 2°26.162 333.7 14 335.9 32.3
2002-03-25 10:04:35 51°29.826 2°26.019 338.5 14 338 26.8
2002-03-25 10:05:35 51°30.045 2°25.88 334.8 14.1 338 29.6
2002-03-25 10:06:35 51°30.26 2°25.736 337.3 14.1 337.6 36.1
2002-03-25 10:07:34 51°30.475 2°25.599 335.7 14.2 338.2 40
2002-03-25 10:08:35 51°30.698 2°25.459 338.2 14.2 339.4 40.3
2002-03-25 10:09:35 51°30.916 2°25.317 335 14.1 337.2 40
2002-03-25 10:10:35 51°31.135 2°25.18 338.7 14.2 340.2 40.7
2002-03-25 10:11:35 51°31.353 2°25.041 337.2 14.1 337.6 40
2002-03-25 10:12:35 51°31.571 2°24.901 335.5 14.1 337.9 37.8
2002-03-25 10:13:35 51°31.788 2°24.76 337.5 14.1 338.5 38.1
2002-03-25 10:14:35 51°32.004 2°24.618 336.7 14.1 337.6 36.4
2002-03-25 10:15:35 51°32.221 2°24.478 336.8 14 337.1 36.4
2002-03-25 10:16:35 51°32.437 2°24.334 335.5 14.1 338 35.1
2002-03-25 10:17:35 51°32.654 2°24.194 338.2 14.1 338 35.3
2002-03-25 10:18:35 51°32.869 2°24.049 336 14.1 336.9 32.7
2002-03-25 10:19:34 51°33.084 2°23.917 337.3 14.1 338.5 37.1
2002-03-25 10:20:35 51°33.306 2°23.777 334.7 14.1 336.8 38.1
2002-03-25 10:21:35 51°33.528 2°23.648 343.7 14.2 344.7 38.7
2002-03-25 10:22:34 51°33.761 2°23.595 355.8 14.5 355 38.5
2002-03-25 10:23:35 51°34.007 2°23.591 1.2 14.7 2.1 38.2
2002-03-25 10:24:35 51°34.249 2°23.657 13.3 14.8 12.2 39
2002-03-25 10:25:35 51°34.491 2°23.72 8.8 14.7 8.4 36.8
2002-03-25 10:26:35 51°34.733 2°23.787 10.8 14.7 11 37.9
2002-03-25 10:27:35 51°34.975 2°23.846 9.7 14.7 9 38.8
2002-03-25 10:28:35 51°35.216 2°23.91 10.2 14.7 8.6 36.2
2002-03-25 10:29:35 51°35.454 2°24.014 19.8 14.9 16.8 38.6
2002-03-25 10:30:35 51°35.691 2°24.126 19 14.8 16.6 34.5
2002-03-25 10:31:35 51°35.926 2°24.256 20.3 14.9 18.5 40
2002-03-25 10:32:35 51°36.16 2°24.381 20.5 14.9 18.6 38.2
2002-03-25 10:33:35 51°36.395 2°24.517 21.2 15 20.9 38.2
2002-03-25 10:34:35 51°36.626 2°24.666 26.7 15 23.9 38.6
2002-03-25 10:35:35 51°36.856 2°24.825 25 15.2 22.7 37
2002-03-25 10:36:35 51°37.085 2°24.987 26.2 15 24.5 37.9
2002-03-25 10:37:35 51°37.311 2°25.16 28.3 15.1 25.3 40
2002-03-25 10:38:35 51°37.54 2°25.323 24.5 15 23.4 38
2002-03-25 10:39:35 51°37.766 2°25.493 27.2 15 25.8 38.8
2002-03-25 10:40:35 51°37.992 2°25.665 30.7 15 26.5 38.9
2002-03-25 10:41:34 51°38.212 2°25.848 28.5 15.1 26.4 40.2
2002-03-25 10:42:35 51°38.438 2°26.036 30.3 14.9 28 39.6
2002-03-25 10:43:35 51°38.661 2°26.22 29.7 15.1 27.2 36.7
2002-03-25 10:44:34 51°38.877 2°26.412 34.5 15.1 32.1 38.9
2002-03-25 10:45:35 51°39.091 2°26.638 37.3 15.1 33.8 39.2
2002-03-25 10:46:35 51°39.306 2°26.848 33.7 15.2 30.3 38.6
2002-03-25 10:47:34 51°39.517 2°27.058 34 15.1 31.8 39.6
2002-03-25 10:48:34 51°39.732 2°27.271 33.5 15.2 30.6 34.5
2002-03-25 10:49:35 51°39.957 2°27.473 37.2 15.3 32.7 40.4
2002-03-25 10:50:35 51°40.163 2°27.706 32.3 15.2 31.4 37.8
2002-03-25 10:51:35 51°40.385 2°27.905 32.7 15.3 29.9 39.4
2002-03-25 10:52:35 51°40.599 2°28.121 35.8 15.1 32.7 39.2
2002-03-25 10:53:34 51°40.804 2°28.342 35 15.1 32.8 41.8
2002-03-25 10:54:34 51°41.018 2°28.56 34.8 15.2 31.8 40.3
2002-03-25 10:55:35 51°41.237 2°28.77 33.3 15.1 30.5 37.1
2002-03-25 10:56:35 51°41.451 2°28.982 33.2 15.2 32.5 38.2
2002-03-25 10:57:35 51°41.667 2°29.196 35.7 15.2 33 37.9
2002-03-25 10:58:35 51°41.882 2°29.407 33.2 15.1 31.3 38
2002-03-25 10:59:35 51°42.096 2°29.618 32.7 15.1 31.1 36.4
2002-03-25 11:00:35 51°42.309 2°29.834 35 15.1 32.4 37.5
2002-03-25 11:01:35 51°42.524 2°30.044 32 15.1 30.6 40.2
2002-03-25 11:02:35 51°42.738 2°30.256 33.8 15.2 31.5 34
2002-03-25 11:03:35 51°42.951 2°30.469 35 15 31.7 37.5
2002-03-25 11:04:35 51°43.101 2°30.768 81.7 14.5 72.9 38.7
2002-03-25 11:05:35 51°43.028 2°31.095 144.3 13.1 135.1 37.6
2002-03-25 11:06:35 51°42.878 2°31.361 134.8 13.6 127.7 35.5
2002-03-25 11:07:35 51°42.733 2°31.639 139.5 13.5 132.4 37.6
2002-03-25 11:08:35 51°42.584 2°31.909 138.5 13.5 131.3 41
2002-03-25 11:09:35 51°42.437 2°32.184 137.5 13.6 130.2 39.9
2002-03-25 11:10:34 51°42.294 2°32.456 137.8 13.5 130.2 38.6
2002-03-25 11:11:35 51°42.147 2°32.736 137 13.5 130.3 41.5
2002-03-25 11:12:35 51°42.001 2°33.009 138.2 13.5 131 41.5
2002-03-25 11:13:35 51°41.862 2°33.295 133.8 13.6 126.4 39.5
2002-03-25 11:14:35 51°41.721 2°33.575 138.8 13.5 131.5 39.2
2002-03-25 11:15:35 51°41.575 2°33.847 137.5 13.4 130.1 41.1
2002-03-25 11:16:35 51°41.432 2°34.122 138 13.4 131 42.2
2002-03-25 11:17:35 51°41.288 2°34.396 137.8 13.4 130.3 38.7
2002-03-25 11:18:35 51°41.151 2°34.679 132.7 13.5 124.7 37.9
2002-03-25 11:19:35 51°41.036 2°34.993 128 13.6 120.8 37
2002-03-25 11:20:35 51°40.939 2°35.328 121.5 13.9 113.7 34.1
2002-03-25 11:21:35 51°40.845 2°35.668 122.8 13.9 114.2 27.3
2002-03-25 11:22:35 51°40.747 2°36.006 121 14 113.9 25.6
2002-03-25 11:23:35 51°40.659 2°36.358 119.5 14.2 112.5 23
2002-03-25 11:24:35 51°40.567 2°36.705 119.5 14.1 112.8 32.4
2002-03-25 11:25:35 51°40.476 2°37.049 119.7 13.9 113.3 37.8
2002-03-25 11:26:35 51°40.385 2°37.391 120 13.9 113.3 41.3
2002-03-25 11:27:35 51°40.296 2°37.734 119.5 13.9 112.3 43
2002-03-25 11:28:35 51°40.208 2°38.079 119.2 13.9 111.8 41
2002-03-25 11:29:35 51°40.12 2°38.424 120 13.9 112.4 42.7
2002-03-25 11:30:35 51°40.034 2°38.769 119.8 13.9 111.9 42.2
2002-03-25 11:31:35 51°39.949 2°39.115 119.8 13.9 111.6 39.4
2002-03-25 11:32:35 51°39.862 2°39.461 119.7 13.9 111.8 40.4
2002-03-25 11:33:35 51°39.775 2°39.804 119.7 13.8 112.7 40.5
2002-03-25 11:34:35 51°39.69 2°40.148 120 13.8 113 35.9
2002-03-25 11:35:35 51°39.603 2°40.49 120 13.8 112.5 38.1
2002-03-25 11:36:35 51°39.516 2°40.832 119.5 13.8 111.7 33.8
2002-03-25 11:37:35 51°39.428 2°41.174 120.2 13.9 113.3 29.7
2002-03-25 11:38:35 51°39.339 2°41.52 120.2 14 112.7 26
2002-03-25 11:39:35 51°39.249 2°41.865 119.5 13.9 112.9 26.5
2002-03-25 11:40:35 51°39.158 2°42.208 119.2 13.9 112.5 28.5
2002-03-25 11:41:34 51°39.07 2°42.544 120 13.9 113.2 33.6
2002-03-25 11:42:35 51°38.976 2°42.89 120 13.8 113.9 37.5
2002-03-25 11:43:35 51°38.886 2°43.229 120.2 13.8 113.4 37.1
2002-03-25 11:44:35 51°38.797 2°43.57 120 13.8 113 37.9
2002-03-25 11:45:35 51°38.707 2°43.91 119.7 13.8 113.1 38.9
2002-03-25 11:46:35 51°38.619 2°44.25 119.8 13.8 112.4 36.3
2002-03-25 11:47:35 51°38.529 2°44.59 119.8 13.8 112.7 37.4
2002-03-25 11:48:35 51°38.44 2°44.929 119.8 13.8 113.4 34.3
2002-03-25 11:49:35 51°38.352 2°45.269 119.7 13.8 112.2 36.5
2002-03-25 11:50:35 51°38.262 2°45.609 119.3 13.8 112.9 34.9
2002-03-25 11:51:35 51°38.157 2°45.931 138 13.2 130.9 34.3
2002-03-25 11:52:35 51°37.966 2°46.039 188.8 12.3 184.1 34
2002-03-25 11:53:35 51°37.765 2°45.965 194.5 12.4 191.4 33.2
2002-03-25 11:54:35 51°37.569 2°45.864 201.2 12.4 198.1 34.9
2002-03-25 11:55:35 51°37.374 2°45.759 201.3 12.4 198.1 36.3
2002-03-25 11:56:35 51°37.177 2°45.652 202.5 12.4 199 37
2002-03-25 11:57:35 51°36.982 2°45.545 201.5 12.3 198.7 35
2002-03-25 11:58:35 51°36.786 2°45.437 201.2 12.6 198.2 34.3
2002-03-25 11:59:35 51°36.601 2°45.29 224 12.4 220.9 34.4
2002-03-25 12:00:35 51°36.553 2°44.977 277.8 12.9 279.9 37.6
2002-03-25 12:01:34 51°36.688 2°44.7 309.8 13.9 312.6 37.4
2002-03-25 12:02:35 51°36.847 2°44.421 310.2 13.9 312.5 34.7
2002-03-25 12:03:35 51°37.002 2°44.147 311 14 313.4 36.4
2002-03-25 12:04:35 51°37.155 2°43.867 306.8 13.9 309 39.1
2002-03-25 12:05:35 51°37.302 2°43.579 307.8 13.9 309.8 40
2002-03-25 12:06:35 51°37.451 2°43.293 309.2 13.9 311 35
2002-03-25 12:07:35 51°37.596 2°43.007 307.3 13.8 309.3 37.2
2002-03-25 12:08:35 51°37.743 2°42.722 307 13.8 308.9 37.5
2002-03-25 12:09:34 51°37.887 2°42.442 308.7 13.8 309.9 36.2
2002-03-25 12:10:35 51°38.036 2°42.15 308.2 13.8 309.9 34.1
2002-03-25 12:11:35 51°38.146 2°41.85 272.8 12.6 279.1 26.1
2002-03-25 12:12:35 51°38.116 2°41.517 262 12.6 263.8 19.9
2002-03-25 12:13:35 51°38.1 2°41.171 264.2 13.1 266.3 26.9
2002-03-25 12:14:35 51°38.086 2°40.825 264 12.9 266.6 24
2002-03-25 12:15:35 51°38.073 2°40.48 264 13 266.7 29.2
2002-03-25 12:16:35 51°38.061 2°40.134 263 12.9 266.4 34.1
2002-03-25 12:17:35 51°38.008 2°39.812 236.7 12.3 239.8 38.4
2002-03-25 12:18:35 51°37.848 2°39.612 207.8 12.3 206.9 38.4
2002-03-25 12:19:35 51°37.662 2°39.467 206.8 12.5 205.5 39.4
2002-03-25 12:20:35 51°37.471 2°39.332 205.8 12.5 204 39.6
2002-03-25 12:21:35 51°37.282 2°39.191 205.3 12.5 204.8 38.9
2002-03-25 12:22:35 51°37.089 2°39.068 198.2 12.4 196.1 39.6
2002-03-25 12:23:35 51°36.89 2°38.97 199.8 12.5 198.2 37.8
2002-03-25 12:24:35 51°36.691 2°38.864 200 12.5 198.4 40.6
2002-03-25 12:25:35 51°36.492 2°38.756 199.8 12.7 198.9 38.6
2002-03-25 12:26:35 51°36.291 2°38.652 199.2 12.6 198.3 36.9
2002-03-25 12:27:35 51°36.09 2°38.545 199.8 12.7 198.2 37.8
2002-03-25 12:28:35 51°35.888 2°38.441 199.5 12.8 197.8 38.5
2002-03-25 12:29:35 51°35.686 2°38.338 200 12.8 197.7 40.3
2002-03-25 12:30:35 51°35.484 2°38.233 199.3 12.7 197.2 40.3
2002-03-25 12:31:35 51°35.283 2°38.13 200.2 12.6 197.7 40.3
2002-03-25 12:32:35 51°35.081 2°38.093 166.7 12.4 162.3 40.9
2002-03-25 12:33:35 51°34.968 2°38.369 113.3 13.5 106.8 40.1
2002-03-25 12:34:35 51°34.863 2°38.688 124 13.6 117.6 35.6
2002-03-25 12:35:35 51°34.754 2°39.008 124.3 13.7 118.8 33.4
2002-03-25 12:36:35 51°34.645 2°39.328 125.7 13.7 120.2 27.3
2002-03-25 12:37:35 51°34.534 2°39.647 124.2 13.6 119.5 22.3
2002-03-25 12:38:35 51°34.424 2°39.962 124.7 13.5 119.5 18.2
2002-03-25 12:39:35 51°34.323 2°40.286 121.3 13.6 116.4 24
2002-03-25 12:40:35 51°34.219 2°40.613 121.8 13.8 117 38.5
2002-03-25 12:41:35 51°34.119 2°40.944 121.8 13.8 116 38.3
2002-03-25 12:42:35 51°34.018 2°41.275 122.5 13.8 116.4 40.3
2002-03-25 12:43:35 51°33.919 2°41.606 121.8 13.7 115.7 41
2002-03-25 12:44:35 51°33.819 2°41.936 122.2 13.7 116.2 36.4
2002-03-25 12:45:35 51°33.72 2°42.264 121.5 13.6 116 39.2
2002-03-25 12:46:35 51°33.621 2°42.591 121.3 13.7 115.7 37.3
2002-03-25 12:47:35 51°33.503 2°42.895 142.7 13.2 137.3 33.1
2002-03-25 12:48:35 51°33.304 2°42.975 191.5 12.5 189.3 33
2002-03-25 12:49:35 51°33.101 2°42.879 198.8 12.9 196.7 32.5
2002-03-25 12:50:35 51°32.901 2°42.759 202.3 12.9 200.9 32.9
2002-03-25 12:51:35 51°32.7 2°42.64 201.7 12.9 200.4 32.5
2002-03-25 12:52:35 51°32.498 2°42.521 201.2 13 199.4 33.8
2002-03-25 12:53:35 51°32.294 2°42.401 200.8 13.1 199.6 32.7
2002-03-25 12:54:35 51°32.092 2°42.279 202.2 13 200.7 33.2
2002-03-25 12:55:35 51°31.892 2°42.154 204.3 13.1 202.9 34.1
2002-03-25 12:56:35 51°31.691 2°42.018 203.8 13.2 202.6 33.2
2002-03-25 12:57:35 51°31.489 2°41.886 203.2 13.1 201.9 32.9
2002-03-25 12:58:35 51°31.288 2°41.754 203.5 13.1 201.9 36.1
2002-03-25 12:59:35 51°31.086 2°41.622 203 13.1 201.6 36.6
2002-03-25 13:00:35 51°30.885 2°41.49 203.3 13.1 201.7 33.2
2002-03-25 13:01:35 51°30.684 2°41.358 204.2 13.1 202.2 34
2002-03-25 13:02:34 51°30.485 2°41.228 205 13.1 202.8 34.8
2002-03-25 13:03:35 51°30.36 2°40.958 259 13.1 256.2 31.8
2002-03-25 13:04:35 51°30.319 2°40.605 259.8 13.5 259.8 37.2
2002-03-25 13:05:35 51°30.281 2°40.249 259 13.5 259.3 36.4
2002-03-25 13:06:35 51°30.258 2°39.888 266.2 13.7 266.1 36.2
2002-03-25 13:07:35 51°30.24 2°39.523 264.3 13.7 264.3 38.8
2002-03-25 13:08:35 51°30.213 2°39.161 261 13.7 261.2 41.6
2002-03-25 13:09:35 51°30.181 2°38.801 262.2 13.6 262.6 38.5
2002-03-25 13:10:35 51°30.151 2°38.443 261.8 13.6 262.3 38.4
2002-03-25 13:11:35 51°30.126 2°38.084 267 13.6 267 37
2002-03-25 13:12:35 51°30.114 2°37.721 268 13.6 267.7 33.4
2002-03-25 13:13:35 51°30.105 2°37.356 268 13.8 268 22
2002-03-25 13:14:35 51°30.098 2°36.991 267.7 13.8 268 23.1
2002-03-25 13:15:35 51°30.09 2°36.626 267.2 13.7 268.2 27.9
2002-03-25 13:16:35 51°30.085 2°36.26 267.5 13.7 268.2 33
2002-03-25 13:17:35 51°30.043 2°35.906 253.8 13.4 255 36
2002-03-25 13:18:35 51°29.984 2°35.562 251.2 13.4 252 39.6
2002-03-25 13:19:35 51°29.908 2°35.226 249.3 13.4 249.7 39.1
2002-03-25 13:20:36 51°29.83 2°34.883 248.8 13.4 249.4 38.3
2002-03-25 13:21:36 51°29.752 2°34.543 250 13.7 250.1 36.7
2002-03-25 13:22:36 51°29.633 2°34.254 215.3 13.1 214.8 36.5
2002-03-25 13:23:36 51°29.419 2°34.18 184.2 13.5 183.1 38
2002-03-25 13:24:36 51°29.2 2°34.223 162 13.4 160.4 37.3
2002-03-25 13:25:36 51°28.997 2°34.375 156.5 13.5 155.2 36.7
2002-03-25 13:26:36 51°28.786 2°34.499 163.2 13.4 160.9 40
2002-03-25 13:27:35 51°28.584 2°34.63 159.7 13.3 157.4 37.9
2002-03-25 13:28:35 51°28.38 2°34.767 159.7 13.4 157.6 34.4
2002-03-25 13:29:35 51°28.175 2°34.904 159.5 13.4 157.2 34.4
2002-03-25 13:30:36 51°27.966 2°35.042 159.8 13.4 157.9 30.9
2002-03-25 13:31:36 51°27.758 2°35.171 162.2 13.4 160.5 29.3
2002-03-25 13:32:36 51°27.547 2°35.291 162.3 13.5 161 27
2002-03-25 13:33:36 51°27.336 2°35.415 160 13.6 159.3 26.9
2002-03-25 13:34:36 51°27.123 2°35.536 161.2 13.6 160.1 29.9
2002-03-25 13:35:36 51°26.906 2°35.631 169.2 13.6 168.3 32.4
2002-03-25 13:36:36 51°26.684 2°35.71 167.7 13.6 166.9 31.7
2002-03-25 13:37:36 51°26.463 2°35.783 170 13.6 169.1 32.4
2002-03-25 13:38:36 51°26.241 2°35.853 169.8 13.6 168.3 32.7
2002-03-25 13:39:35 51°26.023 2°35.925 170 13.6 168.6 33.2
2002-03-25 13:40:36 51°25.798 2°35.999 170 13.5 168.5 32.7
2002-03-25 13:41:36 51°25.579 2°36.071 170 13.5 168.8 31.9
2002-03-25 13:42:36 51°25.359 2°36.145 169.5 13.5 168.5 32.2
2002-03-25 13:43:36 51°25.138 2°36.218 169.5 13.6 167.9 34
2002-03-25 13:44:36 51°24.916 2°36.284 173 13.6 171.6 33.4
2002-03-25 13:45:36 51°24.695 2°36.344 171.3 13.5 170.1 32.5
2002-03-25 13:46:36 51°24.473 2°36.404 172 13.6 170.9 31.5
2002-03-25 13:47:36 51°24.252 2°36.463 170.5 13.5 170 30.5
2002-03-25 13:48:36 51°24.028 2°36.523 170.2 13.6 170 31.6
2002-03-25 13:49:36 51°23.806 2°36.591 169.3 13.7 168.9 30.2
2002-03-25 13:50:36 51°23.584 2°36.659 170.3 13.4 169.3 23.6
2002-03-25 13:51:36 51°23.364 2°36.729 169.7 13.4 169.1 20.6
2002-03-25 13:52:36 51°23.145 2°36.801 167.2 13.4 166.3 21.6
2002-03-25 13:53:36 51°22.928 2°36.888 166.3 13.5 165.3 27.7
2002-03-25 13:54:36 51°22.712 2°36.989 161.3 13.5 160.5 28.3
2002-03-25 13:55:36 51°22.523 2°37.175 143.2 13.4 142 28.9
2002-03-25 13:56:36 51°22.352 2°37.404 139.2 13.4 138.5 30.1
2002-03-25 13:57:36 51°22.194 2°37.655 133.7 13.3 134.2 29.3
2002-03-25 13:58:36 51°22.048 2°37.922 129.5 13.4 128.8 29.9
2002-03-25 13:59:36 51°21.909 2°38.201 130 13.4 129.4 28.3
2002-03-25 14:00:36 51°21.768 2°38.478 129.5 13.4 128.5 27.3
2002-03-25 14:01:35 51°21.646 2°38.769 124.5 13.4 123.6 27
2002-03-25 14:02:36 51°21.533 2°39.082 120.2 13.4 119.2 26.1
2002-03-25 14:03:36 51°21.423 2°39.393 120.8 13.4 119.6 25.7
2002-03-25 14:04:35 51°21.317 2°39.698 119.7 13.3 118.4 25.6
2002-03-25 14:05:36 51°21.209 2°40.014 119.2 13.3 118.1 26.1
2002-03-25 14:06:36 51°21.123 2°40.338 112.7 13.2 111.4 26.1
2002-03-25 14:07:36 51°21.058 2°40.675 109.7 13.3 107.2 24.1
2002-03-25 14:08:35 51°20.992 2°41.006 109.8 13.2 108.3 25.9
2002-03-25 14:09:35 51°20.924 2°41.341 109.8 13.2 108.1 25
2002-03-25 14:10:36 51°20.852 2°41.679 109.3 13.2 108.3 22.5
2002-03-25 14:11:36 51°20.766 2°42.001 116 13.1 115.5 18.8
2002-03-25 14:12:36 51°20.675 2°42.316 114.7 13 114.4 18.5
2002-03-25 14:13:35 51°20.587 2°42.628 114.5 13.2 114.4 18.4
2002-03-25 14:14:36 51°20.494 2°42.953 114.7 13.3 114.3 23.7
2002-03-25 14:15:36 51°20.403 2°43.276 114.5 13.3 114.1 25.7
2002-03-25 14:16:36 51°20.311 2°43.598 114.8 13.4 114.8 26.2
2002-03-25 14:17:36 51°20.22 2°43.922 115.3 13.4 114.3 26.2
2002-03-25 14:18:35 51°20.133 2°44.242 114.7 13.4 113.1 24.6
2002-03-25 14:19:36 51°20.041 2°44.573 114.3 13.3 113.4 24
2002-03-25 14:20:36 51°19.951 2°44.896 114.7 13.3 114.4 22.2
2002-03-25 14:21:36 51°19.86 2°45.217 114.8 13.2 114.7 20.5
2002-03-25 14:22:36 51°19.769 2°45.533 114.7 12.9 114.2 13.1
2002-03-25 14:23:35 51°19.683 2°45.84 115 12.9 114.5 12.6
2002-03-25 14:24:36 51°19.591 2°46.159 114.5 13.1 114.5 15.7
2002-03-25 14:25:36 51°19.5 2°46.476 115 13.1 114.7 18.3
2002-03-25 14:26:36 51°19.409 2°46.793 115 13.1 114.9 20.6
2002-03-25 14:27:35 51°19.32 2°47.103 114.5 13.1 114.7 20.8
2002-03-25 14:28:35 51°19.227 2°47.418 114.5 13 115.2 20.4
2002-03-25 14:29:36 51°19.132 2°47.735 115.2 12.9 115.9 18.6
2002-03-25 14:30:36 51°19.039 2°48.046 114.3 13 115.1 16.8
2002-03-25 14:31:36 51°18.945 2°48.356 115.2 13.1 115.8 14.7
2002-03-25 14:32:35 51°18.848 2°48.658 116.7 13 116.6 12.8
2002-03-25 14:33:36 51°18.745 2°48.963 120.2 12.7 120.5 10
2002-03-25 14:34:36 51°18.636 2°49.254 120.3 12.8 120.7 9.8
2002-03-25 14:35:36 51°18.526 2°49.548 121.2 13 122 10.7
2002-03-25 14:36:36 51°18.407 2°49.842 121.3 13.2 122.5 12.9
2002-03-25 14:37:36 51°18.289 2°50.135 121.8 13.1 122.9 13.4
2002-03-25 14:38:36 51°18.159 2°50.416 125.3 13.1 127.1 12.8
2002-03-25 14:39:36 51°18.03 2°50.698 124.5 13.2 126.1 12
2002-03-25 14:40:36 51°17.902 2°50.979 125.2 13 126.2 10.9
2002-03-25 14:41:35 51°17.777 2°51.251 123.7 12.8 125.3 9.6
2002-03-25 14:42:35 51°17.649 2°51.524 125 12.9 126.6 9
2002-03-25 14:43:36 51°17.517 2°51.806 124.7 13 126.4 9.6
2002-03-25 14:44:36 51°17.373 2°52.066 135 13.3 137.3 9.7
2002-03-25 14:45:36 51°17.192 2°52.268 148.7 13.3 151.1 9.5
2002-03-25 14:46:36 51°16.993 2°52.424 150 13.3 151.9 8.8
2002-03-25 14:47:36 51°16.797 2°52.591 149.5 13.4 151.6 9.3
2002-03-25 14:48:36 51°16.598 2°52.76 148.8 13.6 151.5 10.8
2002-03-25 14:49:36 51°16.398 2°52.926 149.5 13.5 152.3 11.5
2002-03-25 14:50:36 51°16.198 2°53.087 149.7 13.5 152.7 11.6
2002-03-25 14:51:36 51°15.999 2°53.25 150.5 13.5 152.9 11.1
2002-03-25 14:52:36 51°15.8 2°53.414 149.5 13.5 152.7 10.7
2002-03-25 14:53:36 51°15.6 2°53.577 149.3 13.5 153 10
2002-03-25 14:54:36 51°15.419 2°53.722 148.8 10.1 153.6 9.5
2002-03-25 14:55:35 51°15.296 2°53.824 144.7 7.9 150.7 9.1
2002-03-25 14:56:35 51°15.179 2°53.937 143 8.3 148.2 8.7
2002-03-25 14:57:36 51°15.065 2°54.069 138.5 8.3 143 8.4
2002-03-25 14:58:36 51°14.947 2°54.213 137.3 9.6 141.7 7.9
2002-03-25 14:59:36 51°14.82 2°54.379 136.8 10 140.5 9.2
2002-03-25 15:00:35 51°14.686 2°54.559 134.7 11.8 138.1 8.8
2002-03-25 15:01:36 51°14.533 2°54.78 134 12.3 136.4 8.8
2002-03-25 15:02:36 51°14.397 2°55.019 127.2 12.1 127.4 9
2002-03-25 15:03:35 51°14.273 2°55.249 134.2 10.6 132.6 -999
2002-03-25 15:04:40 51°14.171 2°55.382 155.7 5.8 152.7 -999
2002-03-25 15:05:41 51°14.089 2°55.44 158.2 5.2 156.7 -999
2002-03-25 15:06:41 51°13.99 2°55.511 157.8 8.5 156.2 -999
2002-03-25 15:07:41 51°13.854 2°55.614 157.2 7.4 154.8 -999
2002-03-25 15:08:40 51°13.778 2°55.674 145.5 4 145.1 -999
2002-03-25 15:09:41 51°13.735 2°55.75 127.2 3.6 123.6 -999
2002-03-25 15:10:41 51°13.708 2°55.817 127.2 2.5 123.6 -999
2002-03-25 15:11:41 51°13.696 2°55.871 104.7 2.1 100.4 -999